createdAt,value
2022-11-09T00:00:02.208Z,1001.5
2022-11-09T00:15:02.669Z,1001.3
2022-11-09T00:30:03.098Z,1001.3
2022-11-09T00:45:02.514Z,1001.2
2022-11-09T01:00:03.003Z,1001.3
2022-11-09T01:15:02.378Z,1001.3
2022-11-09T01:30:02.992Z,1001.2
2022-11-09T01:45:02.288Z,1001.2
2022-11-09T02:00:02.692Z,1001.2
2022-11-09T02:15:03.146Z,1001.3
2022-11-09T02:30:02.556Z,1001.1
2022-11-09T02:45:03.012Z,1001.2
2022-11-09T03:00:02.460Z,1001.1
2022-11-09T03:15:03.024Z,1001.1
2022-11-09T03:30:02.344Z,1001.1
2022-11-09T03:45:02.786Z,1001.2
2022-11-09T04:00:03.235Z,1001.5
2022-11-09T04:15:02.670Z,1001.5
2022-11-09T04:30:03.105Z,1001.3
2022-11-09T04:45:02.563Z,1001.3
2022-11-09T05:00:03.051Z,1001.6
2022-11-09T05:15:02.409Z,1001.6
2022-11-09T05:30:03.059Z,1001.7
2022-11-09T05:45:28.064Z,1001.7
2022-11-09T06:00:05.263Z,1001.9
2022-11-09T06:15:03.192Z,1002.0
2022-11-09T06:30:02.621Z,1002.0
2022-11-09T06:45:03.063Z,1001.9
2022-11-09T07:00:02.483Z,1002.3
2022-11-09T07:15:03.099Z,1002.3
2022-11-09T07:30:02.360Z,1002.4
2022-11-09T07:45:02.801Z,1002.5
2022-11-09T08:00:03.245Z,1002.6
2022-11-09T08:15:02.648Z,1002.6
2022-11-09T08:30:03.106Z,1002.7
2022-11-09T08:45:02.542Z,1002.9
2022-11-09T09:00:03.085Z,1002.9
2022-11-09T09:15:02.403Z,1003.0
2022-11-09T09:30:03.077Z,1003.0
2022-11-09T09:45:02.304Z,1003.1
2022-11-09T10:00:02.738Z,1003.1
2022-11-09T10:15:03.192Z,1003.3
2022-11-09T10:30:02.622Z,1003.2
2022-11-09T10:45:03.121Z,1003.3
2022-11-09T11:00:02.552Z,1003.2
2022-11-09T11:15:03.112Z,1003.2
2022-11-09T11:30:02.406Z,1003.3
2022-11-09T11:45:26.146Z,1003.2
2022-11-09T12:00:02.266Z,1003.3
2022-11-09T12:15:02.696Z,1003.2
2022-11-09T12:30:03.149Z,1003.4
2022-11-09T12:45:02.558Z,1003.5
2022-11-09T13:00:03.141Z,1003.4
2022-11-09T13:15:02.474Z,1003.5
2022-11-09T13:30:02.897Z,1003.6
2022-11-09T13:45:02.301Z,1003.7
2022-11-09T14:00:02.745Z,1003.8
2022-11-09T14:15:03.202Z,1003.7
2022-11-09T14:30:02.714Z,1003.9
2022-11-09T14:45:03.163Z,1003.9
2022-11-09T15:00:02.503Z,1004.1
2022-11-09T15:15:03.176Z,1004.2
2022-11-09T15:30:02.370Z,1004.6
2022-11-09T15:45:02.876Z,1004.7
2022-11-09T16:00:02.249Z,1004.8
2022-11-09T16:15:02.693Z,1005.0
2022-11-09T16:30:03.181Z,1005.1
2022-11-09T16:45:02.593Z,1005.4
2022-11-09T17:00:03.186Z,1005.5
2022-11-09T17:15:02.450Z,1005.7
2022-11-09T17:30:02.899Z,1005.8
2022-11-09T17:45:02.334Z,1006.1
2022-11-09T18:00:02.789Z,1006.3
2022-11-09T18:15:03.286Z,1006.5
2022-11-09T18:30:02.620Z,1006.5
2022-11-09T18:45:03.228Z,1006.6
2022-11-09T19:00:02.485Z,1006.9
2022-11-09T19:15:02.932Z,1007.3
2022-11-09T19:30:07.907Z,1007.5
2022-11-09T19:45:02.812Z,1007.7
2022-11-09T20:00:03.271Z,1007.9
2022-11-09T20:15:02.678Z,1008.1
2022-11-09T20:30:03.238Z,1008.4
2022-11-09T20:45:02.563Z,1008.6
2022-11-09T21:00:02.994Z,1008.7
2022-11-09T21:15:02.425Z,1009.1
2022-11-09T21:30:02.855Z,1009.1
2022-11-09T21:45:02.330Z,1009.3
2022-11-09T22:00:02.747Z,1009.4
2022-11-09T22:15:03.294Z,1009.7
2022-11-09T22:30:02.646Z,1009.9
2022-11-09T22:45:03.280Z,1010.0
2022-11-09T23:00:02.517Z,1010.0
2022-11-09T23:15:02.969Z,1010.4
2022-11-09T23:30:02.435Z,1010.6
2022-11-09T23:45:02.819Z,1010.9
